sensor_id;sensor_type;location;lat;lon;timestamp;P1;durP1;ratioP1;P2;durP2;ratioP2
11384;SDS011;5747;56.748;13.882;2022-12-10T19:31:59;1.30;;;1.20;;
11384;SDS011;5747;56.748;13.882;2022-12-10T19:34:27;1.40;;;1.30;;
11384;SDS011;5747;56.748;13.882;2022-12-10T19:36:55;1.30;;;1.20;;
11384;SDS011;5747;56.748;13.882;2022-12-10T19:39:23;1.10;;;1.10;;
11384;SDS011;5747;56.748;13.882;2022-12-10T19:41:52;1.10;;;1.00;;
11384;SDS011;5747;56.748;13.882;2022-12-10T19:44:20;1.20;;;1.10;;
11384;SDS011;5747;56.748;13.882;2022-12-10T19:46:48;1.20;;;1.10;;
11384;SDS011;5747;56.748;13.882;2022-12-10T19:49:18;1.30;;;1.20;;
11384;SDS011;5747;56.748;13.882;2022-12-10T19:51:47;1.30;;;1.20;;
11384;SDS011;5747;56.748;13.882;2022-12-10T19:54:15;1.40;;;1.30;;
11384;SDS011;5747;56.748;13.882;2022-12-10T19:56:43;1.40;;;1.30;;
11384;SDS011;5747;56.748;13.882;2022-12-10T19:59:12;1.70;;;1.60;;
11384;SDS011;5747;56.748;13.882;2022-12-10T20:01:42;1.93;;;1.30;;
11384;SDS011;5747;56.748;13.882;2022-12-10T20:04:10;1.80;;;1.47;;
11384;SDS011;5747;56.748;13.882;2022-12-10T20:06:41;2.53;;;2.10;;
11384;SDS011;5747;56.748;13.882;2022-12-10T20:09:14;2.83;;;2.10;;
11384;SDS011;5747;56.748;13.882;2022-12-10T20:11:45;2.23;;;1.70;;
11384;SDS011;5747;56.748;13.882;2022-12-10T20:14:13;3.03;;;2.60;;
11384;SDS011;5747;56.748;13.882;2022-12-10T20:16:42;2.93;;;2.30;;
11384;SDS011;5747;56.748;13.882;2022-12-10T20:19:10;2.93;;;2.03;;
11384;SDS011;5747;56.748;13.882;2022-12-10T20:21:41;3.57;;;2.70;;
11384;SDS011;5747;56.748;13.882;2022-12-10T20:24:09;2.50;;;2.10;;
11384;SDS011;5747;56.748;13.882;2022-12-10T20:26:39;2.73;;;2.40;;
11384;SDS011;5747;56.748;13.882;2022-12-10T20:29:10;2.90;;;2.37;;
11384;SDS011;5747;56.748;13.882;2022-12-10T20:31:44;1.90;;;1.60;;
11384;SDS011;5747;56.748;13.882;2022-12-10T20:34:13;2.60;;;2.03;;
11384;SDS011;5747;56.748;13.882;2022-12-10T20:36:43;2.77;;;2.00;;
11384;SDS011;5747;56.748;13.882;2022-12-10T20:39:12;2.63;;;1.77;;
11384;SDS011;5747;56.748;13.882;2022-12-10T20:41:44;2.80;;;2.30;;
11384;SDS011;5747;56.748;13.882;2022-12-10T20:44:12;2.90;;;2.10;;
11384;SDS011;5747;56.748;13.882;2022-12-10T20:46:40;2.50;;;2.03;;
11384;SDS011;5747;56.748;13.882;2022-12-10T20:49:09;3.93;;;2.30;;
11384;SDS011;5747;56.748;13.882;2022-12-10T20:51:37;4.40;;;2.13;;
11384;SDS011;5747;56.748;13.882;2022-12-10T20:54:07;3.07;;;2.40;;
11384;SDS011;5747;56.748;13.882;2022-12-10T20:56:35;2.57;;;2.13;;
11384;SDS011;5747;56.748;13.882;2022-12-10T20:59:03;3.00;;;2.27;;
11384;SDS011;5747;56.748;13.882;2022-12-10T21:01:32;3.07;;;2.53;;
11384;SDS011;5747;56.748;13.882;2022-12-10T21:04:00;2.80;;;2.30;;
11384;SDS011;5747;56.748;13.882;2022-12-10T21:06:29;3.33;;;2.60;;
11384;SDS011;5747;56.748;13.882;2022-12-10T21:08:59;2.70;;;2.17;;
11384;SDS011;5747;56.748;13.882;2022-12-10T21:11:28;2.53;;;2.10;;
11384;SDS011;5747;56.748;13.882;2022-12-10T21:13:56;2.80;;;2.30;;
11384;SDS011;5747;56.748;13.882;2022-12-10T21:16:25;2.13;;;1.87;;
11384;SDS011;5747;56.748;13.882;2022-12-10T21:18:53;2.73;;;2.17;;
11384;SDS011;5747;56.748;13.882;2022-12-10T21:21:22;3.80;;;2.47;;
11384;SDS011;5747;56.748;13.882;2022-12-10T21:23:52;2.67;;;2.23;;
11384;SDS011;5747;56.748;13.882;2022-12-10T21:26:20;4.87;;;2.60;;
11384;SDS011;5747;56.748;13.882;2022-12-10T21:28:50;2.73;;;2.00;;
11384;SDS011;5747;56.748;13.882;2022-12-10T21:31:19;3.00;;;2.50;;
11384;SDS011;5747;56.748;13.882;2022-12-10T21:33:49;3.53;;;2.60;;
11384;SDS011;5747;56.748;13.882;2022-12-10T21:36:22;3.60;;;2.40;;
11384;SDS011;5747;56.748;13.882;2022-12-10T21:38:50;3.60;;;2.80;;
11384;SDS011;5747;56.748;13.882;2022-12-10T21:41:19;3.43;;;2.57;;
11384;SDS011;5747;56.748;13.882;2022-12-10T21:44:08;2.50;;;2.20;;
11384;SDS011;5747;56.748;13.882;2022-12-10T21:46:37;3.40;;;2.47;;
11384;SDS011;5747;56.748;13.882;2022-12-10T21:49:05;3.07;;;2.23;;
11384;SDS011;5747;56.748;13.882;2022-12-10T21:51:34;4.20;;;2.53;;
11384;SDS011;5747;56.748;13.882;2022-12-10T21:54:06;3.13;;;2.30;;
11384;SDS011;5747;56.748;13.882;2022-12-10T21:56:34;3.60;;;2.50;;
11384;SDS011;5747;56.748;13.882;2022-12-10T21:59:03;3.33;;;2.27;;
11384;SDS011;5747;56.748;13.882;2022-12-10T22:01:32;2.20;;;1.50;;
11384;SDS011;5747;56.748;13.882;2022-12-10T22:04:00;1.77;;;1.37;;
11384;SDS011;5747;56.748;13.882;2022-12-10T22:06:28;3.07;;;2.30;;
11384;SDS011;5747;56.748;13.882;2022-12-10T22:08:56;3.23;;;2.37;;
11384;SDS011;5747;56.748;13.882;2022-12-10T22:11:24;2.87;;;1.83;;
11384;SDS011;5747;56.748;13.882;2022-12-10T22:13:53;3.60;;;2.33;;
11384;SDS011;5747;56.748;13.882;2022-12-10T22:16:21;3.57;;;2.10;;
11384;SDS011;5747;56.748;13.882;2022-12-10T22:18:51;2.63;;;1.93;;
11384;SDS011;5747;56.748;13.882;2022-12-10T22:21:19;3.20;;;2.70;;
11384;SDS011;5747;56.748;13.882;2022-12-10T22:23:49;2.90;;;2.20;;
11384;SDS011;5747;56.748;13.882;2022-12-10T22:26:18;3.67;;;2.70;;
11384;SDS011;5747;56.748;13.882;2022-12-10T22:28:46;2.80;;;2.40;;
11384;SDS011;5747;56.748;13.882;2022-12-10T22:31:15;3.57;;;2.13;;
11384;SDS011;5747;56.748;13.882;2022-12-10T22:33:43;2.90;;;2.20;;
11384;SDS011;5747;56.748;13.882;2022-12-10T22:36:12;2.47;;;1.80;;
11384;SDS011;5747;56.748;13.882;2022-12-10T22:38:41;2.07;;;1.87;;
11384;SDS011;5747;56.748;13.882;2022-12-10T22:41:10;2.07;;;1.43;;
11384;SDS011;5747;56.748;13.882;2022-12-10T22:43:38;2.97;;;1.77;;
11384;SDS011;5747;56.748;13.882;2022-12-10T22:46:16;3.90;;;2.40;;
11384;SDS011;5747;56.748;13.882;2022-12-10T22:48:44;2.57;;;1.93;;
11384;SDS011;5747;56.748;13.882;2022-12-10T22:51:14;2.50;;;1.77;;
11384;SDS011;5747;56.748;13.882;2022-12-10T22:53:42;3.17;;;2.63;;
11384;SDS011;5747;56.748;13.882;2022-12-10T22:56:10;2.83;;;2.23;;
11384;SDS011;5747;56.748;13.882;2022-12-10T22:58:40;2.67;;;1.80;;
11384;SDS011;5747;56.748;13.882;2022-12-10T23:01:12;2.33;;;2.03;;
11384;SDS011;5747;56.748;13.882;2022-12-10T23:03:42;3.87;;;2.27;;
11384;SDS011;5747;56.748;13.882;2022-12-10T23:06:10;2.10;;;1.90;;
11384;SDS011;5747;56.748;13.882;2022-12-10T23:08:40;4.20;;;2.30;;
11384;SDS011;5747;56.748;13.882;2022-12-10T23:11:08;3.10;;;2.33;;
11384;SDS011;5747;56.748;13.882;2022-12-10T23:13:38;2.73;;;2.27;;
11384;SDS011;5747;56.748;13.882;2022-12-10T23:16:06;3.23;;;2.10;;
11384;SDS011;5747;56.748;13.882;2022-12-10T23:18:35;3.13;;;2.30;;
11384;SDS011;5747;56.748;13.882;2022-12-10T23:21:11;2.57;;;2.30;;
11384;SDS011;5747;56.748;13.882;2022-12-10T23:23:41;1.47;;;1.33;;
11384;SDS011;5747;56.748;13.882;2022-12-10T23:26:09;1.80;;;1.40;;
11384;SDS011;5747;56.748;13.882;2022-12-10T23:28:38;3.33;;;2.10;;
11384;SDS011;5747;56.748;13.882;2022-12-10T23:31:06;2.43;;;2.07;;
11384;SDS011;5747;56.748;13.882;2022-12-10T23:33:36;2.43;;;2.00;;
11384;SDS011;5747;56.748;13.882;2022-12-10T23:36:05;2.37;;;1.80;;
11384;SDS011;5747;56.748;13.882;2022-12-10T23:38:33;2.40;;;1.67;;
11384;SDS011;5747;56.748;13.882;2022-12-10T23:41:05;2.20;;;1.70;;
11384;SDS011;5747;56.748;13.882;2022-12-10T23:43:34;1.90;;;1.70;;
11384;SDS011;5747;56.748;13.882;2022-12-10T23:46:03;3.40;;;2.03;;
11384;SDS011;5747;56.748;13.882;2022-12-10T23:48:31;2.00;;;1.80;;
11384;SDS011;5747;56.748;13.882;2022-12-10T23:50:59;2.30;;;1.87;;
11384;SDS011;5747;56.748;13.882;2022-12-10T23:53:28;3.10;;;1.93;;
11384;SDS011;5747;56.748;13.882;2022-12-10T23:55:55;2.40;;;2.20;;
11384;SDS011;5747;56.748;13.882;2022-12-10T23:58:25;2.70;;;2.10;;
